sensor_id;sensor_type;location;lat;lon;timestamp;P1;durP1;ratioP1;P2;durP2;ratioP2
9729;SDS011;4904;49.152;11.004;2023-09-19T00:01:39;4.35;;;2.05;;
9729;SDS011;4904;49.152;11.004;2023-09-19T00:04:08;1.98;;;1.83;;
9729;SDS011;4904;49.152;11.004;2023-09-19T00:06:37;4.82;;;2.28;;
9729;SDS011;4904;49.152;11.004;2023-09-19T00:09:05;3.40;;;1.98;;
9729;SDS011;4904;49.152;11.004;2023-09-19T00:11:35;2.38;;;1.80;;
9729;SDS011;4904;49.152;11.004;2023-09-19T00:14:02;2.67;;;2.00;;
9729;SDS011;4904;49.152;11.004;2023-09-19T00:16:33;3.92;;;1.70;;
9729;SDS011;4904;49.152;11.004;2023-09-19T00:19:01;3.28;;;1.92;;
9729;SDS011;4904;49.152;11.004;2023-09-19T00:21:34;3.58;;;1.80;;
9729;SDS011;4904;49.152;11.004;2023-09-19T00:24:03;3.10;;;1.85;;
9729;SDS011;4904;49.152;11.004;2023-09-19T00:26:31;2.35;;;1.73;;
9729;SDS011;4904;49.152;11.004;2023-09-19T00:28:59;2.97;;;2.13;;
9729;SDS011;4904;49.152;11.004;2023-09-19T00:31:29;1.77;;;1.67;;
9729;SDS011;4904;49.152;11.004;2023-09-19T00:33:56;4.47;;;1.88;;
9729;SDS011;4904;49.152;11.004;2023-09-19T00:36:29;3.92;;;2.28;;
9729;SDS011;4904;49.152;11.004;2023-09-19T00:38:57;3.55;;;1.77;;
9729;SDS011;4904;49.152;11.004;2023-09-19T00:41:24;8.35;;;2.50;;
9729;SDS011;4904;49.152;11.004;2023-09-19T00:43:52;6.38;;;2.05;;
9729;SDS011;4904;49.152;11.004;2023-09-19T00:46:19;4.38;;;2.10;;
9729;SDS011;4904;49.152;11.004;2023-09-19T00:48:46;2.30;;;2.10;;
9729;SDS011;4904;49.152;11.004;2023-09-19T00:51:13;2.47;;;2.00;;
9729;SDS011;4904;49.152;11.004;2023-09-19T00:53:43;4.05;;;2.28;;
9729;SDS011;4904;49.152;11.004;2023-09-19T00:56:13;2.72;;;2.00;;
9729;SDS011;4904;49.152;11.004;2023-09-19T00:58:43;2.38;;;1.90;;
9729;SDS011;4904;49.152;11.004;2023-09-19T01:01:11;4.18;;;1.70;;
9729;SDS011;4904;49.152;11.004;2023-09-19T01:03:40;3.00;;;1.80;;
9729;SDS011;4904;49.152;11.004;2023-09-19T01:06:07;2.60;;;1.63;;
9729;SDS011;4904;49.152;11.004;2023-09-19T01:08:35;2.05;;;1.70;;
9729;SDS011;4904;49.152;11.004;2023-09-19T01:11:07;2.05;;;1.77;;
9729;SDS011;4904;49.152;11.004;2023-09-19T01:13:44;2.20;;;1.58;;
9729;SDS011;4904;49.152;11.004;2023-09-19T01:16:20;2.70;;;1.83;;
9729;SDS011;4904;49.152;11.004;2023-09-19T01:18:55;3.80;;;1.65;;
9729;SDS011;4904;49.152;11.004;2023-09-19T01:21:42;1.77;;;1.63;;
9729;SDS011;4904;49.152;11.004;2023-09-19T01:24:25;3.00;;;1.63;;
9729;SDS011;4904;49.152;11.004;2023-09-19T01:30:08;3.60;;;1.58;;
9729;SDS011;4904;49.152;11.004;2023-09-19T01:32:36;2.13;;;1.60;;
9729;SDS011;4904;49.152;11.004;2023-09-19T01:35:06;3.22;;;1.38;;
9729;SDS011;4904;49.152;11.004;2023-09-19T01:37:37;1.75;;;1.40;;
9729;SDS011;4904;49.152;11.004;2023-09-19T01:40:09;2.67;;;1.60;;
9729;SDS011;4904;49.152;11.004;2023-09-19T01:42:43;2.63;;;1.80;;
9729;SDS011;4904;49.152;11.004;2023-09-19T01:45:17;2.50;;;1.77;;
9729;SDS011;4904;49.152;11.004;2023-09-19T01:47:52;2.10;;;1.40;;
9729;SDS011;4904;49.152;11.004;2023-09-19T01:50:25;1.75;;;1.55;;
9729;SDS011;4904;49.152;11.004;2023-09-19T01:52:57;2.92;;;1.52;;
9729;SDS011;4904;49.152;11.004;2023-09-19T01:55:30;1.67;;;1.50;;
9729;SDS011;4904;49.152;11.004;2023-09-19T01:58:04;1.58;;;1.48;;
9729;SDS011;4904;49.152;11.004;2023-09-19T02:00:36;2.45;;;1.50;;
9729;SDS011;4904;49.152;11.004;2023-09-19T02:03:06;2.53;;;1.45;;
9729;SDS011;4904;49.152;11.004;2023-09-19T02:05:34;3.90;;;1.50;;
9729;SDS011;4904;49.152;11.004;2023-09-19T02:08:01;2.22;;;1.60;;
9729;SDS011;4904;49.152;11.004;2023-09-19T02:10:28;1.52;;;1.40;;
9729;SDS011;4904;49.152;11.004;2023-09-19T02:12:55;2.75;;;1.77;;
9729;SDS011;4904;49.152;11.004;2023-09-19T02:15:24;1.73;;;1.63;;
9729;SDS011;4904;49.152;11.004;2023-09-19T02:17:52;1.60;;;1.50;;
9729;SDS011;4904;49.152;11.004;2023-09-19T02:20:21;1.63;;;1.52;;
9729;SDS011;4904;49.152;11.004;2023-09-19T02:22:48;2.35;;;1.48;;
9729;SDS011;4904;49.152;11.004;2023-09-19T02:25:17;4.28;;;1.40;;
9729;SDS011;4904;49.152;11.004;2023-09-19T02:27:44;1.85;;;1.40;;
9729;SDS011;4904;49.152;11.004;2023-09-19T02:30:12;2.63;;;1.70;;
9729;SDS011;4904;49.152;11.004;2023-09-19T02:32:41;3.72;;;1.60;;
9729;SDS011;4904;49.152;11.004;2023-09-19T02:35:09;1.63;;;1.52;;
9729;SDS011;4904;49.152;11.004;2023-09-19T02:37:37;2.70;;;1.35;;
9729;SDS011;4904;49.152;11.004;2023-09-19T02:40:05;2.58;;;1.60;;
9729;SDS011;4904;49.152;11.004;2023-09-19T02:42:43;2.53;;;1.80;;
9729;SDS011;4904;49.152;11.004;2023-09-19T02:45:14;2.13;;;1.80;;
9729;SDS011;4904;49.152;11.004;2023-09-19T02:47:43;2.90;;;1.70;;
9729;SDS011;4904;49.152;11.004;2023-09-19T02:50:12;3.08;;;1.80;;
9729;SDS011;4904;49.152;11.004;2023-09-19T02:52:41;1.80;;;1.70;;
9729;SDS011;4904;49.152;11.004;2023-09-19T02:55:09;3.78;;;1.67;;
9729;SDS011;4904;49.152;11.004;2023-09-19T02:57:39;2.10;;;1.60;;
9729;SDS011;4904;49.152;11.004;2023-09-19T03:00:12;2.17;;;1.52;;
9729;SDS011;4904;49.152;11.004;2023-09-19T03:02:40;2.42;;;1.88;;
9729;SDS011;4904;49.152;11.004;2023-09-19T03:05:08;2.95;;;1.60;;
9729;SDS011;4904;49.152;11.004;2023-09-19T03:07:37;2.75;;;1.35;;
9729;SDS011;4904;49.152;11.004;2023-09-19T03:10:05;1.80;;;1.63;;
9729;SDS011;4904;49.152;11.004;2023-09-19T03:12:33;6.38;;;1.70;;
9729;SDS011;4904;49.152;11.004;2023-09-19T03:15:00;2.63;;;1.77;;
9729;SDS011;4904;49.152;11.004;2023-09-19T03:17:29;3.90;;;1.60;;
9729;SDS011;4904;49.152;11.004;2023-09-19T03:19:57;2.22;;;1.60;;
9729;SDS011;4904;49.152;11.004;2023-09-19T03:22:26;2.28;;;1.50;;
9729;SDS011;4904;49.152;11.004;2023-09-19T03:24:55;1.90;;;1.65;;
9729;SDS011;4904;49.152;11.004;2023-09-19T03:27:22;1.85;;;1.65;;
9729;SDS011;4904;49.152;11.004;2023-09-19T03:29:50;1.73;;;1.63;;
9729;SDS011;4904;49.152;11.004;2023-09-19T03:32:17;2.25;;;1.60;;
9729;SDS011;4904;49.152;11.004;2023-09-19T03:34:44;1.70;;;1.60;;
9729;SDS011;4904;49.152;11.004;2023-09-19T03:37:13;1.77;;;1.58;;
9729;SDS011;4904;49.152;11.004;2023-09-19T03:39:41;3.35;;;1.50;;
9729;SDS011;4904;49.152;11.004;2023-09-19T03:42:09;1.40;;;1.30;;
9729;SDS011;4904;49.152;11.004;2023-09-19T03:44:36;1.58;;;1.40;;
9729;SDS011;4904;49.152;11.004;2023-09-19T03:47:03;1.50;;;1.30;;
9729;SDS011;4904;49.152;11.004;2023-09-19T03:49:32;2.63;;;1.60;;
9729;SDS011;4904;49.152;11.004;2023-09-19T03:51:59;1.95;;;1.55;;
9729;SDS011;4904;49.152;11.004;2023-09-19T03:54:25;1.98;;;1.60;;
9729;SDS011;4904;49.152;11.004;2023-09-19T03:56:52;1.40;;;1.30;;
9729;SDS011;4904;49.152;11.004;2023-09-19T03:59:21;3.33;;;1.70;;
9729;SDS011;4904;49.152;11.004;2023-09-19T04:01:48;1.83;;;1.58;;
9729;SDS011;4904;49.152;11.004;2023-09-19T04:04:15;3.03;;;1.63;;
9729;SDS011;4904;49.152;11.004;2023-09-19T04:06:44;1.60;;;1.42;;
9729;SDS011;4904;49.152;11.004;2023-09-19T04:09:11;3.38;;;1.45;;
9729;SDS011;4904;49.152;11.004;2023-09-19T04:11:38;3.45;;;1.55;;
9729;SDS011;4904;49.152;11.004;2023-09-19T04:14:07;2.63;;;1.73;;
9729;SDS011;4904;49.152;11.004;2023-09-19T04:16:36;3.25;;;1.50;;
9729;SDS011;4904;49.152;11.004;2023-09-19T04:19:04;1.75;;;1.50;;
9729;SDS011;4904;49.152;11.004;2023-09-19T04:21:31;1.50;;;1.40;;
9729;SDS011;4904;49.152;11.004;2023-09-19T04:23:58;2.58;;;1.33;;
9729;SDS011;4904;49.152;11.004;2023-09-19T04:26:25;1.58;;;1.30;;
9729;SDS011;4904;49.152;11.004;2023-09-19T04:28:52;2.10;;;1.40;;
9729;SDS011;4904;49.152;11.004;2023-09-19T04:31:19;2.20;;;1.52;;
9729;SDS011;4904;49.152;11.004;2023-09-19T04:33:48;1.45;;;1.27;;
9729;SDS011;4904;49.152;11.004;2023-09-19T04:36:15;4.53;;;1.70;;
9729;SDS011;4904;49.152;11.004;2023-09-19T04:38:42;1.90;;;1.50;;
9729;SDS011;4904;49.152;11.004;2023-09-19T04:41:09;1.67;;;1.33;;
9729;SDS011;4904;49.152;11.004;2023-09-19T04:43:35;2.40;;;1.50;;
9729;SDS011;4904;49.152;11.004;2023-09-19T04:46:02;2.08;;;1.40;;
9729;SDS011;4904;49.152;11.004;2023-09-19T04:48:31;2.08;;;1.42;;
9729;SDS011;4904;49.152;11.004;2023-09-19T04:51:00;1.50;;;1.40;;
9729;SDS011;4904;49.152;11.004;2023-09-19T04:53:28;4.70;;;1.80;;
9729;SDS011;4904;49.152;11.004;2023-09-19T04:55:55;1.50;;;1.40;;
9729;SDS011;4904;49.152;11.004;2023-09-19T04:58:23;1.88;;;1.40;;
9729;SDS011;4904;49.152;11.004;2023-09-19T05:00:50;1.92;;;1.55;;
9729;SDS011;4904;49.152;11.004;2023-09-19T05:03:17;3.10;;;1.60;;
9729;SDS011;4904;49.152;11.004;2023-09-19T05:05:46;2.00;;;1.50;;
9729;SDS011;4904;49.152;11.004;2023-09-19T05:08:14;3.45;;;1.42;;
9729;SDS011;4904;49.152;11.004;2023-09-19T05:10:41;1.50;;;1.40;;
9729;SDS011;4904;49.152;11.004;2023-09-19T05:13:08;2.88;;;1.50;;
9729;SDS011;4904;49.152;11.004;2023-09-19T05:15:36;1.33;;;1.20;;
9729;SDS011;4904;49.152;11.004;2023-09-19T05:18:03;3.38;;;1.42;;
9729;SDS011;4904;49.152;11.004;2023-09-19T05:20:31;2.40;;;1.40;;
9729;SDS011;4904;49.152;11.004;2023-09-19T05:23:01;4.72;;;1.80;;
9729;SDS011;4904;49.152;11.004;2023-09-19T05:25:32;1.92;;;1.50;;
9729;SDS011;4904;49.152;11.004;2023-09-19T05:28:03;2.53;;;1.35;;
9729;SDS011;4904;49.152;11.004;2023-09-19T05:30:31;2.08;;;1.50;;
9729;SDS011;4904;49.152;11.004;2023-09-19T05:32:58;2.72;;;1.60;;
9729;SDS011;4904;49.152;11.004;2023-09-19T05:35:25;1.65;;;1.40;;
9729;SDS011;4904;49.152;11.004;2023-09-19T05:37:52;3.17;;;1.65;;
9729;SDS011;4904;49.152;11.004;2023-09-19T05:40:21;1.50;;;1.40;;
9729;SDS011;4904;49.152;11.004;2023-09-19T05:42:50;3.58;;;1.60;;
9729;SDS011;4904;49.152;11.004;2023-09-19T05:45:17;2.88;;;1.48;;
9729;SDS011;4904;49.152;11.004;2023-09-19T05:47:47;1.73;;;1.48;;
9729;SDS011;4904;49.152;11.004;2023-09-19T05:50:15;3.03;;;1.50;;
9729;SDS011;4904;49.152;11.004;2023-09-19T05:52:43;1.48;;;1.20;;
9729;SDS011;4904;49.152;11.004;2023-09-19T05:55:17;1.60;;;1.50;;
9729;SDS011;4904;49.152;11.004;2023-09-19T05:57:50;3.00;;;1.88;;
9729;SDS011;4904;49.152;11.004;2023-09-19T06:00:17;2.35;;;1.40;;
9729;SDS011;4904;49.152;11.004;2023-09-19T06:02:49;2.22;;;1.48;;
9729;SDS011;4904;49.152;11.004;2023-09-19T06:05:17;2.97;;;1.63;;
9729;SDS011;4904;49.152;11.004;2023-09-19T06:07:44;1.48;;;1.30;;
9729;SDS011;4904;49.152;11.004;2023-09-19T06:10:12;2.65;;;1.40;;
9729;SDS011;4904;49.152;11.004;2023-09-19T06:12:39;1.70;;;1.60;;
9729;SDS011;4904;49.152;11.004;2023-09-19T06:15:10;1.65;;;1.25;;
9729;SDS011;4904;49.152;11.004;2023-09-19T06:17:40;2.60;;;1.60;;
9729;SDS011;4904;49.152;11.004;2023-09-19T06:20:08;1.95;;;1.60;;
9729;SDS011;4904;49.152;11.004;2023-09-19T06:22:39;2.33;;;1.67;;
9729;SDS011;4904;49.152;11.004;2023-09-19T06:25:08;1.65;;;1.55;;
9729;SDS011;4904;49.152;11.004;2023-09-19T06:27:37;3.60;;;1.80;;
9729;SDS011;4904;49.152;11.004;2023-09-19T06:30:07;2.85;;;1.77;;
9729;SDS011;4904;49.152;11.004;2023-09-19T06:32:37;3.83;;;1.80;;
9729;SDS011;4904;49.152;11.004;2023-09-19T06:35:05;3.15;;;1.55;;
9729;SDS011;4904;49.152;11.004;2023-09-19T06:37:34;2.38;;;1.60;;
9729;SDS011;4904;49.152;11.004;2023-09-19T06:40:03;1.70;;;1.60;;
9729;SDS011;4904;49.152;11.004;2023-09-19T06:42:32;3.15;;;1.58;;
9729;SDS011;4904;49.152;11.004;2023-09-19T06:44:58;4.35;;;1.90;;
9729;SDS011;4904;49.152;11.004;2023-09-19T06:47:25;2.08;;;1.88;;
9729;SDS011;4904;49.152;11.004;2023-09-19T06:49:53;1.52;;;1.42;;
9729;SDS011;4904;49.152;11.004;2023-09-19T06:52:20;2.08;;;1.58;;
9729;SDS011;4904;49.152;11.004;2023-09-19T06:54:47;1.92;;;1.50;;
9729;SDS011;4904;49.152;11.004;2023-09-19T06:57:15;2.67;;;1.83;;
9729;SDS011;4904;49.152;11.004;2023-09-19T06:59:42;2.58;;;1.70;;
9729;SDS011;4904;49.152;11.004;2023-09-19T07:02:10;1.85;;;1.60;;
9729;SDS011;4904;49.152;11.004;2023-09-19T07:04:38;2.13;;;1.70;;
9729;SDS011;4904;49.152;11.004;2023-09-19T07:07:07;3.05;;;1.63;;
9729;SDS011;4904;49.152;11.004;2023-09-19T07:09:35;3.28;;;1.60;;
9729;SDS011;4904;49.152;11.004;2023-09-19T07:12:02;2.97;;;1.75;;
9729;SDS011;4904;49.152;11.004;2023-09-19T07:14:29;2.47;;;1.65;;
9729;SDS011;4904;49.152;11.004;2023-09-19T07:16:57;3.17;;;1.70;;
9729;SDS011;4904;49.152;11.004;2023-09-19T07:19:25;3.45;;;1.55;;
9729;SDS011;4904;49.152;11.004;2023-09-19T07:21:53;2.20;;;1.50;;
9729;SDS011;4904;49.152;11.004;2023-09-19T07:24:21;2.10;;;1.77;;
9729;SDS011;4904;49.152;11.004;2023-09-19T07:26:49;3.28;;;1.83;;
9729;SDS011;4904;49.152;11.004;2023-09-19T07:29:16;2.33;;;1.70;;
9729;SDS011;4904;49.152;11.004;2023-09-19T07:31:43;2.17;;;1.70;;
9729;SDS011;4904;49.152;11.004;2023-09-19T07:34:10;3.88;;;1.90;;
9729;SDS011;4904;49.152;11.004;2023-09-19T07:36:39;2.83;;;1.80;;
9729;SDS011;4904;49.152;11.004;2023-09-19T07:39:08;3.90;;;2.00;;
9729;SDS011;4904;49.152;11.004;2023-09-19T07:41:38;1.70;;;1.60;;
9729;SDS011;4904;49.152;11.004;2023-09-19T07:44:07;1.90;;;1.80;;
9729;SDS011;4904;49.152;11.004;2023-09-19T07:46:35;2.45;;;1.75;;
9729;SDS011;4904;49.152;11.004;2023-09-19T07:49:03;2.80;;;1.67;;
9729;SDS011;4904;49.152;11.004;2023-09-19T07:51:31;2.17;;;1.77;;
9729;SDS011;4904;49.152;11.004;2023-09-19T07:53:59;2.65;;;1.48;;
9729;SDS011;4904;49.152;11.004;2023-09-19T07:56:26;2.20;;;1.77;;
9729;SDS011;4904;49.152;11.004;2023-09-19T07:58:55;2.45;;;1.90;;
9729;SDS011;4904;49.152;11.004;2023-09-19T08:01:24;2.15;;;1.98;;
9729;SDS011;4904;49.152;11.004;2023-09-19T08:03:52;1.98;;;1.75;;
9729;SDS011;4904;49.152;11.004;2023-09-19T08:06:19;2.15;;;1.80;;
9729;SDS011;4904;49.152;11.004;2023-09-19T08:08:46;2.13;;;1.88;;
9729;SDS011;4904;49.152;11.004;2023-09-19T08:11:14;2.45;;;2.10;;
9729;SDS011;4904;49.152;11.004;2023-09-19T08:13:46;1.92;;;1.80;;
9729;SDS011;4904;49.152;11.004;2023-09-19T08:16:15;2.53;;;1.80;;
9729;SDS011;4904;49.152;11.004;2023-09-19T08:18:43;5.45;;;1.90;;
9729;SDS011;4904;49.152;11.004;2023-09-19T08:21:13;3.30;;;2.10;;
9729;SDS011;4904;49.152;11.004;2023-09-19T08:23:40;7.03;;;2.00;;
9729;SDS011;4904;49.152;11.004;2023-09-19T08:26:10;3.28;;;1.75;;
9729;SDS011;4904;49.152;11.004;2023-09-19T08:28:38;2.22;;;2.05;;
9729;SDS011;4904;49.152;11.004;2023-09-19T08:31:06;4.60;;;2.50;;
9729;SDS011;4904;49.152;11.004;2023-09-19T08:33:36;2.63;;;2.00;;
9729;SDS011;4904;49.152;11.004;2023-09-19T08:36:04;2.33;;;2.13;;
9729;SDS011;4904;49.152;11.004;2023-09-19T08:38:35;3.15;;;1.98;;
9729;SDS011;4904;49.152;11.004;2023-09-19T08:41:05;2.10;;;1.90;;
9729;SDS011;4904;49.152;11.004;2023-09-19T08:43:33;2.97;;;2.03;;
9729;SDS011;4904;49.152;11.004;2023-09-19T08:46:03;3.20;;;1.92;;
9729;SDS011;4904;49.152;11.004;2023-09-19T08:48:38;3.78;;;2.35;;
9729;SDS011;4904;49.152;11.004;2023-09-19T08:51:10;2.00;;;1.75;;
9729;SDS011;4904;49.152;11.004;2023-09-19T08:53:49;4.05;;;2.22;;
9729;SDS011;4904;49.152;11.004;2023-09-19T08:56:18;3.70;;;2.08;;
9729;SDS011;4904;49.152;11.004;2023-09-19T08:58:48;3.22;;;2.40;;
9729;SDS011;4904;49.152;11.004;2023-09-19T09:01:18;2.88;;;2.30;;
9729;SDS011;4904;49.152;11.004;2023-09-19T09:03:51;3.35;;;2.17;;
9729;SDS011;4904;49.152;11.004;2023-09-19T09:06:20;3.90;;;2.25;;
9729;SDS011;4904;49.152;11.004;2023-09-19T09:08:48;5.28;;;2.33;;
9729;SDS011;4904;49.152;11.004;2023-09-19T09:11:17;4.50;;;2.20;;
9729;SDS011;4904;49.152;11.004;2023-09-19T09:13:44;4.45;;;2.40;;
9729;SDS011;4904;49.152;11.004;2023-09-19T09:16:11;3.65;;;2.47;;
9729;SDS011;4904;49.152;11.004;2023-09-19T09:18:39;3.25;;;2.13;;
9729;SDS011;4904;49.152;11.004;2023-09-19T09:21:07;3.40;;;2.03;;
9729;SDS011;4904;49.152;11.004;2023-09-19T09:23:34;3.75;;;2.40;;
9729;SDS011;4904;49.152;11.004;2023-09-19T09:26:01;3.25;;;2.20;;
9729;SDS011;4904;49.152;11.004;2023-09-19T09:28:31;3.63;;;2.10;;
9729;SDS011;4904;49.152;11.004;2023-09-19T09:31:00;3.67;;;2.17;;
9729;SDS011;4904;49.152;11.004;2023-09-19T09:33:33;2.30;;;2.10;;
9729;SDS011;4904;49.152;11.004;2023-09-19T09:36:01;2.75;;;2.10;;
9729;SDS011;4904;49.152;11.004;2023-09-19T09:38:42;10.85;;;2.70;;
9729;SDS011;4904;49.152;11.004;2023-09-19T09:41:12;6.50;;;2.45;;
9729;SDS011;4904;49.152;11.004;2023-09-19T09:43:52;2.63;;;2.17;;
9729;SDS011;4904;49.152;11.004;2023-09-19T09:46:20;2.97;;;2.20;;
9729;SDS011;4904;49.152;11.004;2023-09-19T09:49:05;3.08;;;2.40;;
9729;SDS011;4904;49.152;11.004;2023-09-19T09:51:45;2.58;;;2.33;;
9729;SDS011;4904;49.152;11.004;2023-09-19T09:54:24;3.85;;;2.33;;
9729;SDS011;4904;49.152;11.004;2023-09-19T09:56:54;2.50;;;2.30;;
9729;SDS011;4904;49.152;11.004;2023-09-19T10:02:16;4.93;;;2.00;;
9729;SDS011;4904;49.152;11.004;2023-09-19T10:04:49;3.20;;;2.40;;
9729;SDS011;4904;49.152;11.004;2023-09-19T10:07:27;2.60;;;2.40;;
9729;SDS011;4904;49.152;11.004;2023-09-19T10:10:02;2.95;;;1.98;;
9729;SDS011;4904;49.152;11.004;2023-09-19T10:12:42;1.88;;;1.73;;
9729;SDS011;4904;49.152;11.004;2023-09-19T10:15:15;3.53;;;2.30;;
9729;SDS011;4904;49.152;11.004;2023-09-19T10:17:45;3.92;;;1.75;;
9729;SDS011;4904;49.152;11.004;2023-09-19T10:20:13;2.60;;;1.92;;
9729;SDS011;4904;49.152;11.004;2023-09-19T10:22:52;3.40;;;1.67;;
9729;SDS011;4904;49.152;11.004;2023-09-19T10:25:27;1.98;;;1.73;;
9729;SDS011;4904;49.152;11.004;2023-09-19T10:27:56;1.70;;;1.55;;
9729;SDS011;4904;49.152;11.004;2023-09-19T10:30:26;1.95;;;1.73;;
9729;SDS011;4904;49.152;11.004;2023-09-19T10:32:57;4.25;;;1.80;;
9729;SDS011;4904;49.152;11.004;2023-09-19T10:35:27;1.63;;;1.50;;
9729;SDS011;4904;49.152;11.004;2023-09-19T10:37:54;2.03;;;1.75;;
9729;SDS011;4904;49.152;11.004;2023-09-19T10:40:24;1.88;;;1.63;;
9729;SDS011;4904;49.152;11.004;2023-09-19T10:43:00;2.10;;;1.50;;
9729;SDS011;4904;49.152;11.004;2023-09-19T10:45:30;2.00;;;1.63;;
9729;SDS011;4904;49.152;11.004;2023-09-19T10:47:58;1.65;;;1.55;;
9729;SDS011;4904;49.152;11.004;2023-09-19T10:50:27;4.07;;;1.75;;
9729;SDS011;4904;49.152;11.004;2023-09-19T10:52:59;1.75;;;1.65;;
9729;SDS011;4904;49.152;11.004;2023-09-19T10:55:30;1.90;;;1.63;;
9729;SDS011;4904;49.152;11.004;2023-09-19T10:57:59;1.98;;;1.50;;
9729;SDS011;4904;49.152;11.004;2023-09-19T11:00:29;3.72;;;1.73;;
9729;SDS011;4904;49.152;11.004;2023-09-19T11:03:18;2.20;;;1.65;;
9729;SDS011;4904;49.152;11.004;2023-09-19T11:06:01;2.63;;;1.45;;
9729;SDS011;4904;49.152;11.004;2023-09-19T11:08:54;3.88;;;1.80;;
9729;SDS011;4904;49.152;11.004;2023-09-19T11:11:48;2.25;;;1.77;;
9729;SDS011;4904;49.152;11.004;2023-09-19T11:20:16;1.90;;;1.50;;
9729;SDS011;4904;49.152;11.004;2023-09-19T11:25:44;1.80;;;1.50;;
9729;SDS011;4904;49.152;11.004;2023-09-19T11:30:59;1.95;;;1.27;;
9729;SDS011;4904;49.152;11.004;2023-09-19T11:37:11;2.80;;;1.63;;
9729;SDS011;4904;49.152;11.004;2023-09-19T11:40:40;1.80;;;1.40;;
9729;SDS011;4904;49.152;11.004;2023-09-19T11:43:29;2.05;;;1.42;;
9729;SDS011;4904;49.152;11.004;2023-09-19T11:48:47;2.05;;;1.50;;
9729;SDS011;4904;49.152;11.004;2023-09-19T11:51:15;1.50;;;1.40;;
9729;SDS011;4904;49.152;11.004;2023-09-19T11:53:52;1.88;;;1.40;;
9729;SDS011;4904;49.152;11.004;2023-09-19T11:56:20;2.85;;;1.80;;
9729;SDS011;4904;49.152;11.004;2023-09-19T11:58:49;2.17;;;1.60;;
9729;SDS011;4904;49.152;11.004;2023-09-19T12:01:22;4.53;;;1.75;;
9729;SDS011;4904;49.152;11.004;2023-09-19T12:03:52;2.15;;;1.80;;
9729;SDS011;4904;49.152;11.004;2023-09-19T12:06:22;2.25;;;1.70;;
9729;SDS011;4904;49.152;11.004;2023-09-19T12:08:50;2.55;;;1.90;;
9729;SDS011;4904;49.152;11.004;2023-09-19T12:11:19;2.72;;;1.27;;
9729;SDS011;4904;49.152;11.004;2023-09-19T12:13:48;1.70;;;1.60;;
9729;SDS011;4904;49.152;11.004;2023-09-19T12:16:16;2.38;;;1.42;;
9729;SDS011;4904;49.152;11.004;2023-09-19T12:18:48;2.47;;;1.40;;
9729;SDS011;4904;49.152;11.004;2023-09-19T12:21:26;1.98;;;1.30;;
9729;SDS011;4904;49.152;11.004;2023-09-19T12:24:04;2.15;;;1.50;;
9729;SDS011;4904;49.152;11.004;2023-09-19T12:26:39;2.03;;;1.50;;
9729;SDS011;4904;49.152;11.004;2023-09-19T12:29:12;2.05;;;1.50;;
9729;SDS011;4904;49.152;11.004;2023-09-19T12:31:49;1.60;;;1.50;;
9729;SDS011;4904;49.152;11.004;2023-09-19T12:34:20;2.58;;;1.60;;
9729;SDS011;4904;49.152;11.004;2023-09-19T12:36:48;3.08;;;1.60;;
9729;SDS011;4904;49.152;11.004;2023-09-19T12:39:24;2.35;;;1.65;;
9729;SDS011;4904;49.152;11.004;2023-09-19T12:41:52;1.40;;;1.30;;
9729;SDS011;4904;49.152;11.004;2023-09-19T12:44:19;1.55;;;1.35;;
9729;SDS011;4904;49.152;11.004;2023-09-19T12:46:49;1.38;;;1.20;;
9729;SDS011;4904;49.152;11.004;2023-09-19T12:49:21;2.10;;;1.65;;
9729;SDS011;4904;49.152;11.004;2023-09-19T12:51:48;2.05;;;1.38;;
9729;SDS011;4904;49.152;11.004;2023-09-19T12:54:16;2.97;;;1.50;;
9729;SDS011;4904;49.152;11.004;2023-09-19T12:56:43;2.08;;;1.50;;
9729;SDS011;4904;49.152;11.004;2023-09-19T12:59:12;1.63;;;1.52;;
9729;SDS011;4904;49.152;11.004;2023-09-19T13:01:41;1.70;;;1.60;;
9729;SDS011;4904;49.152;11.004;2023-09-19T13:04:12;2.47;;;1.50;;
9729;SDS011;4904;49.152;11.004;2023-09-19T13:06:44;4.22;;;1.52;;
9729;SDS011;4904;49.152;11.004;2023-09-19T13:09:13;3.20;;;1.60;;
9729;SDS011;4904;49.152;11.004;2023-09-19T13:11:41;2.05;;;1.85;;
9729;SDS011;4904;49.152;11.004;2023-09-19T13:14:19;2.15;;;1.50;;
9729;SDS011;4904;49.152;11.004;2023-09-19T13:16:55;1.83;;;1.40;;
9729;SDS011;4904;49.152;11.004;2023-09-19T13:19:38;2.20;;;1.60;;
9729;SDS011;4904;49.152;11.004;2023-09-19T13:25:05;2.08;;;1.60;;
9729;SDS011;4904;49.152;11.004;2023-09-19T13:27:38;1.77;;;1.42;;
9729;SDS011;4904;49.152;11.004;2023-09-19T13:30:06;2.33;;;1.80;;
9729;SDS011;4904;49.152;11.004;2023-09-19T13:32:34;2.22;;;1.70;;
9729;SDS011;4904;49.152;11.004;2023-09-19T13:35:01;1.60;;;1.50;;
9729;SDS011;4904;49.152;11.004;2023-09-19T13:37:28;4.03;;;1.75;;
9729;SDS011;4904;49.152;11.004;2023-09-19T13:39:56;5.25;;;2.10;;
9729;SDS011;4904;49.152;11.004;2023-09-19T13:42:24;1.70;;;1.38;;
9729;SDS011;4904;49.152;11.004;2023-09-19T13:44:54;3.75;;;1.50;;
9729;SDS011;4904;49.152;11.004;2023-09-19T13:47:21;2.78;;;1.50;;
9729;SDS011;4904;49.152;11.004;2023-09-19T13:49:51;1.98;;;1.60;;
9729;SDS011;4904;49.152;11.004;2023-09-19T13:52:19;2.00;;;1.67;;
9729;SDS011;4904;49.152;11.004;2023-09-19T13:54:46;1.45;;;1.35;;
9729;SDS011;4904;49.152;11.004;2023-09-19T13:57:15;1.58;;;1.48;;
9729;SDS011;4904;49.152;11.004;2023-09-19T13:59:43;2.50;;;1.58;;
9729;SDS011;4904;49.152;11.004;2023-09-19T14:02:10;1.50;;;1.40;;
9729;SDS011;4904;49.152;11.004;2023-09-19T14:04:39;3.45;;;1.50;;
9729;SDS011;4904;49.152;11.004;2023-09-19T14:07:06;1.88;;;1.77;;
9729;SDS011;4904;49.152;11.004;2023-09-19T14:09:34;3.15;;;1.30;;
9729;SDS011;4904;49.152;11.004;2023-09-19T14:12:01;3.88;;;1.75;;
9729;SDS011;4904;49.152;11.004;2023-09-19T14:14:30;2.90;;;1.60;;
9729;SDS011;4904;49.152;11.004;2023-09-19T14:16:57;2.35;;;1.63;;
9729;SDS011;4904;49.152;11.004;2023-09-19T14:19:25;3.28;;;1.40;;
9729;SDS011;4904;49.152;11.004;2023-09-19T14:21:53;3.70;;;1.35;;
9729;SDS011;4904;49.152;11.004;2023-09-19T14:24:20;1.60;;;1.50;;
9729;SDS011;4904;49.152;11.004;2023-09-19T14:26:47;2.10;;;1.70;;
9729;SDS011;4904;49.152;11.004;2023-09-19T14:29:14;2.42;;;1.58;;
9729;SDS011;4904;49.152;11.004;2023-09-19T14:31:46;3.25;;;1.50;;
9729;SDS011;4904;49.152;11.004;2023-09-19T14:34:13;2.22;;;1.60;;
9729;SDS011;4904;49.152;11.004;2023-09-19T14:36:42;1.80;;;1.60;;
9729;SDS011;4904;49.152;11.004;2023-09-19T14:39:09;2.05;;;1.70;;
9729;SDS011;4904;49.152;11.004;2023-09-19T14:41:36;2.53;;;1.60;;
9729;SDS011;4904;49.152;11.004;2023-09-19T14:44:03;1.65;;;1.55;;
9729;SDS011;4904;49.152;11.004;2023-09-19T14:46:30;2.88;;;1.80;;
9729;SDS011;4904;49.152;11.004;2023-09-19T14:48:59;3.42;;;1.42;;
9729;SDS011;4904;49.152;11.004;2023-09-19T14:51:28;2.08;;;1.65;;
9729;SDS011;4904;49.152;11.004;2023-09-19T14:53:56;1.67;;;1.40;;
9729;SDS011;4904;49.152;11.004;2023-09-19T14:56:23;1.80;;;1.67;;
9729;SDS011;4904;49.152;11.004;2023-09-19T14:58:50;2.40;;;1.33;;
9729;SDS011;4904;49.152;11.004;2023-09-19T15:01:17;1.73;;;1.63;;
9729;SDS011;4904;49.152;11.004;2023-09-19T15:03:44;4.10;;;1.90;;
9729;SDS011;4904;49.152;11.004;2023-09-19T15:06:15;1.58;;;1.48;;
9729;SDS011;4904;49.152;11.004;2023-09-19T15:08:45;2.20;;;2.00;;
9729;SDS011;4904;49.152;11.004;2023-09-19T15:11:15;1.48;;;1.38;;
9729;SDS011;4904;49.152;11.004;2023-09-19T15:13:43;3.08;;;1.42;;
9729;SDS011;4904;49.152;11.004;2023-09-19T15:16:11;2.28;;;1.50;;
9729;SDS011;4904;49.152;11.004;2023-09-19T15:18:39;2.35;;;1.42;;
9729;SDS011;4904;49.152;11.004;2023-09-19T15:21:08;3.05;;;1.67;;
9729;SDS011;4904;49.152;11.004;2023-09-19T15:23:38;1.50;;;1.40;;
9729;SDS011;4904;49.152;11.004;2023-09-19T15:26:06;2.42;;;1.50;;
9729;SDS011;4904;49.152;11.004;2023-09-19T15:28:34;1.33;;;1.20;;
9729;SDS011;4904;49.152;11.004;2023-09-19T15:31:02;1.65;;;1.52;;
9729;SDS011;4904;49.152;11.004;2023-09-19T15:33:31;2.88;;;1.33;;
9729;SDS011;4904;49.152;11.004;2023-09-19T15:36:01;1.88;;;1.40;;
9729;SDS011;4904;49.152;11.004;2023-09-19T15:38:30;1.50;;;1.40;;
9729;SDS011;4904;49.152;11.004;2023-09-19T15:40:59;1.67;;;1.50;;
9729;SDS011;4904;49.152;11.004;2023-09-19T15:43:26;1.85;;;1.70;;